Time;durP1;ratioP1;P1;durP2;ratioP2;P2;SDS_P1;SDS_P2;PMS_P1;PMS_P2;Temp;Humidity;BMP_temperature;BMP_pressure;BME280_temperature;BME280_humidity;BME280_pressure;Samples;Min_cycle;Max_cycle;Signal;HPM_P1;HPM_P2
2023/09/22 00:02:05;;;;;;;1.25;0.90;;;;;;;14.50;100.00;99459.09;5054764;28;20040;-66
2023/09/22 00:04:31;;;;;;;1.00;0.80;;;;;;;14.46;100.00;99456.69;5043545;28;20033;-65
2023/09/22 00:06:57;;;;;;;2.13;0.90;;;;;;;14.44;100.00;99461.13;5038174;28;20033;-65
2023/09/22 00:09:22;;;;;;;4.43;1.40;;;;;;;14.42;100.00;99457.75;5028264;28;20034;-65
2023/09/22 00:11:48;;;;;;;3.03;0.82;;;;;;;14.39;100.00;99461.34;5025180;28;20056;-65
2023/09/22 00:14:13;;;;;;;1.52;1.05;;;;;;;14.38;100.00;99466.59;5026367;28;20033;-63
2023/09/22 00:16:38;;;;;;;3.13;1.30;;;;;;;14.34;100.00;99470.19;5025575;28;20440;-63
2023/09/22 00:19:05;;;;;;;1.60;0.90;;;;;;;14.29;100.00;99466.97;5027899;28;20033;-63
2023/09/22 00:21:34;;;;;;;1.50;0.98;;;;;;;14.23;100.00;99473.28;5035476;28;20036;-63
2023/09/22 00:24:00;;;;;;;2.45;1.08;;;;;;;14.20;100.00;99465.63;5026018;28;20041;-63
2023/09/22 00:26:25;;;;;;;2.35;1.00;;;;;;;14.19;100.00;99476.09;5035776;28;20033;-63
2023/09/22 00:28:50;;;;;;;2.42;0.90;;;;;;;14.13;100.00;99470.22;5033208;28;20033;-63
2023/09/22 00:31:16;;;;;;;2.38;1.17;;;;;;;14.09;100.00;99465.25;5040843;28;20037;-63
2023/09/22 00:33:41;;;;;;;1.30;0.90;;;;;;;14.07;100.00;99467.03;5027111;28;20389;-63
2023/09/22 00:36:06;;;;;;;3.67;1.40;;;;;;;14.02;100.00;99463.81;5030387;28;20029;-63
2023/09/22 00:38:32;;;;;;;1.67;1.20;;;;;;;13.97;100.00;99466.63;5036589;28;20033;-63
2023/09/22 00:40:57;;;;;;;2.67;0.80;;;;;;;13.96;100.00;99459.72;5036337;28;20076;-63
2023/09/22 00:43:23;;;;;;;2.05;0.90;;;;;;;13.93;100.00;99472.00;5034828;28;20065;-63
2023/09/22 00:45:51;;;;;;;1.85;1.10;;;;;;;13.92;100.00;99471.16;5029388;28;20127;-63
2023/09/22 00:48:23;;;;;;;3.50;1.20;;;;;;;13.88;100.00;99473.94;5031526;28;20559;-63
2023/09/22 00:50:53;;;;;;;1.70;0.90;;;;;;;13.89;100.00;99478.25;5033650;28;20618;-62
2023/09/22 00:53:19;;;;;;;2.70;1.23;;;;;;;13.84;100.00;99482.78;5031640;28;20034;-63
2023/09/22 00:55:46;;;;;;;1.95;0.90;;;;;;;13.81;100.00;99480.31;5029535;28;20065;-63
2023/09/22 00:58:12;;;;;;;2.00;1.08;;;;;;;13.75;100.00;99484.00;5022214;28;20029;-63
2023/09/22 01:00:40;;;;;;;1.65;1.00;;;;;;;13.70;100.00;99483.34;5035056;28;20088;-62
2023/09/22 01:03:05;;;;;;;1.83;0.90;;;;;;;13.65;100.00;99487.06;5034989;28;20691;-66
2023/09/22 01:05:33;;;;;;;1.92;1.23;;;;;;;13.62;100.00;99488.03;5035551;28;20025;-65
2023/09/22 01:07:58;;;;;;;3.25;1.25;;;;;;;13.57;100.00;99488.19;5033540;28;20038;-66
2023/09/22 01:10:23;;;;;;;2.85;1.00;;;;;;;13.56;100.00;99491.69;5036797;28;20032;-66
2023/09/22 01:12:51;;;;;;;1.17;0.70;;;;;;;13.57;100.00;99487.34;5031262;28;20041;-66
2023/09/22 01:15:16;;;;;;;1.60;1.00;;;;;;;13.52;100.00;99499.69;5029030;28;20072;-65
2023/09/22 01:17:42;;;;;;;3.88;1.17;;;;;;;13.50;100.00;99502.31;5037231;28;20029;-66
2023/09/22 01:20:09;;;;;;;3.38;1.55;;;;;;;13.46;100.00;99512.91;5034295;28;20045;-66
2023/09/22 01:22:35;;;;;;;1.58;1.15;;;;;;;13.42;100.00;99508.72;5030709;28;20033;-65
2023/09/22 01:25:00;;;;;;;3.90;1.27;;;;;;;13.37;100.00;99516.72;5030212;28;20044;-61
2023/09/22 01:27:25;;;;;;;1.67;0.90;;;;;;;13.35;100.00;99504.72;5030327;28;20033;-61
2023/09/22 01:29:51;;;;;;;2.90;0.95;;;;;;;13.32;100.00;99507.44;5027097;28;20128;-61
2023/09/22 01:32:17;;;;;;;4.97;1.23;;;;;;;13.30;100.00;99507.47;5030666;28;20181;-61
2023/09/22 01:34:42;;;;;;;1.52;1.10;;;;;;;13.27;100.00;99510.19;5035614;28;20046;-61
2023/09/22 01:37:08;;;;;;;3.40;1.20;;;;;;;13.25;100.00;99505.97;5031733;28;20064;-61
2023/09/22 01:39:34;;;;;;;2.33;1.23;;;;;;;13.22;100.00;99517.31;5039176;28;20048;-61
2023/09/22 01:41:59;;;;;;;3.22;1.20;;;;;;;13.19;100.00;99509.66;5036285;28;20404;-61
2023/09/22 01:44:25;;;;;;;2.78;1.20;;;;;;;13.17;100.00;99510.63;5033955;28;20040;-61
2023/09/22 01:46:50;;;;;;;9.02;1.35;;;;;;;13.14;100.00;99505.53;5037117;28;20590;-61
2023/09/22 01:49:16;;;;;;;1.67;1.08;;;;;;;13.10;100.00;99504.81;5038589;28;20044;-61
2023/09/22 01:51:42;;;;;;;3.05;1.05;;;;;;;13.08;100.00;99503.19;5038740;28;20115;-62
2023/09/22 01:54:07;;;;;;;2.85;0.90;;;;;;;13.07;100.00;99493.69;5037111;28;20044;-61
2023/09/22 01:56:33;;;;;;;3.40;1.30;;;;;;;13.03;100.00;99505.13;5038561;28;20033;-65
2023/09/22 01:58:59;;;;;;;3.58;1.33;;;;;;;12.99;100.00;99505.25;5029061;28;20033;-64
2023/09/22 02:01:24;;;;;;;2.75;1.10;;;;;;;12.97;100.00;99506.13;5036401;28;20036;-64
2023/09/22 02:03:51;;;;;;;2.75;1.00;;;;;;;12.94;100.00;99504.50;5036433;28;20033;-65
2023/09/22 02:06:17;;;;;;;1.52;1.05;;;;;;;12.93;100.00;99500.25;5031602;28;20039;-65
2023/09/22 02:08:43;;;;;;;1.90;1.10;;;;;;;12.92;100.00;99502.88;5041593;28;20041;-65
2023/09/22 02:11:10;;;;;;;3.90;1.13;;;;;;;12.91;100.00;99499.44;5032557;28;20171;-64
2023/09/22 02:13:35;;;;;;;1.80;1.02;;;;;;;12.90;100.00;99492.59;5040899;28;20029;-65
2023/09/22 02:16:03;;;;;;;2.15;1.27;;;;;;;12.90;100.00;99494.31;5029335;28;20838;-64
2023/09/22 02:18:29;;;;;;;4.78;1.08;;;;;;;12.88;100.00;99485.78;5040023;28;20033;-64
2023/09/22 02:20:54;;;;;;;2.88;1.25;;;;;;;12.87;100.00;99494.44;5040591;28;20094;-64
2023/09/22 02:23:19;;;;;;;4.13;1.20;;;;;;;12.85;100.00;99489.31;5028843;28;20263;-65
2023/09/22 02:25:45;;;;;;;2.65;1.25;;;;;;;12.84;100.00;99494.56;5033715;28;20033;-65
2023/09/22 02:28:10;;;;;;;3.92;1.20;;;;;;;12.84;100.00;99492.81;5031964;28;20490;-65
2023/09/22 02:30:37;;;;;;;1.70;1.17;;;;;;;12.85;100.00;99512.63;5028224;28;20033;-65
2023/09/22 02:33:03;;;;;;;1.88;1.00;;;;;;;12.92;100.00;99521.03;5038360;28;20698;-64
2023/09/22 02:35:28;;;;;;;3.03;1.30;;;;;;;12.90;100.00;99526.31;5042096;28;20033;-65
2023/09/22 02:37:54;;;;;;;2.38;1.20;;;;;;;12.90;100.00;99518.53;5034991;28;20126;-65
2023/09/22 02:40:19;;;;;;;5.68;1.10;;;;;;;12.92;100.00;99526.22;5030267;28;20052;-65
2023/09/22 02:42:45;;;;;;;3.33;1.05;;;;;;;12.88;100.00;99530.69;5026883;28;20029;-65
2023/09/22 02:45:11;;;;;;;2.88;1.30;;;;;;;12.88;100.00;99529.84;5029414;28;20056;-65
2023/09/22 02:47:40;;;;;;;3.30;1.20;;;;;;;12.87;100.00;99533.34;5038135;28;20860;-65
2023/09/22 02:50:11;;;;;;;4.28;1.48;;;;;;;12.91;100.00;99540.13;5033734;28;20091;-64
2023/09/22 02:52:42;;;;;;;2.60;1.10;;;;;;;12.83;100.00;99539.53;5029641;28;20534;-64
2023/09/22 02:55:09;;;;;;;1.98;1.48;;;;;;;12.79;100.00;99537.97;5030573;28;20041;-63
2023/09/22 02:57:37;;;;;;;4.15;1.20;;;;;;;12.71;100.00;99538.25;5036704;28;20436;-64
2023/09/22 03:00:23;;;;;;;3.00;1.00;;;;;;;12.68;100.00;99542.69;5042955;28;20470;-64
2023/09/22 03:02:48;;;;;;;2.33;1.15;;;;;;;12.64;100.00;99538.53;5024930;28;20073;-64
2023/09/22 03:05:16;;;;;;;3.78;1.10;;;;;;;12.60;100.00;99534.34;5026553;28;20044;-64
2023/09/22 03:07:42;;;;;;;2.63;1.58;;;;;;;12.58;100.00;99537.00;5022679;28;20121;-62
2023/09/22 03:10:10;;;;;;;3.92;1.70;;;;;;;12.56;100.00;99533.59;5032318;28;20060;-61
2023/09/22 03:12:35;;;;;;;8.45;2.55;;;;;;;12.55;100.00;99525.91;5032880;28;20044;-62
2023/09/22 03:15:01;;;;;;;5.90;2.03;;;;;;;12.57;100.00;99522.34;5038083;28;20033;-61
2023/09/22 03:17:26;;;;;;;2.67;1.33;;;;;;;12.56;100.00;99514.63;5036313;28;20043;-61
2023/09/22 03:19:51;;;;;;;5.72;1.77;;;;;;;12.53;100.00;99515.56;5037578;28;20282;-61
2023/09/22 03:22:17;;;;;;;2.97;1.50;;;;;;;12.55;100.00;99520.72;5032942;28;20068;-61
2023/09/22 03:24:42;;;;;;;2.22;1.45;;;;;;;12.54;100.00;99516.44;5036287;28;20025;-61
2023/09/22 03:27:07;;;;;;;2.60;1.40;;;;;;;12.57;100.00;99511.97;5038405;28;20068;-61
2023/09/22 03:29:33;;;;;;;3.42;1.60;;;;;;;12.67;100.00;99517.69;5035242;28;20082;-62
2023/09/22 03:31:58;;;;;;;6.32;1.98;;;;;;;12.73;100.00;99509.69;5034397;28;20041;-62
2023/09/22 03:34:23;;;;;;;3.40;1.90;;;;;;;12.79;100.00;99509.47;5033954;28;20037;-62
2023/09/22 03:36:49;;;;;;;4.10;1.95;;;;;;;12.85;100.00;99498.84;5033423;28;20045;-62
2023/09/22 03:39:15;;;;;;;5.63;1.50;;;;;;;12.90;100.00;99499.50;5034703;28;20067;-63
2023/09/22 03:41:40;;;;;;;6.40;1.73;;;;;;;12.97;100.00;99503.56;5032308;28;20051;-62
2023/09/22 03:44:07;;;;;;;4.28;1.88;;;;;;;13.02;100.00;99506.88;5029518;28;21344;-62
2023/09/22 03:46:32;;;;;;;6.13;2.03;;;;;;;13.10;100.00;99520.38;5026534;28;20049;-62
2023/09/22 03:48:58;;;;;;;5.22;1.67;;;;;;;13.16;100.00;99525.34;5036899;28;20037;-63
2023/09/22 03:51:23;;;;;;;5.00;1.52;;;;;;;13.19;100.00;99530.41;5030135;28;20117;-63
2023/09/22 03:53:48;;;;;;;5.30;1.90;;;;;;;13.28;100.00;99526.59;5024677;28;20033;-62
2023/09/22 03:56:14;;;;;;;1.90;1.30;;;;;;;13.33;100.00;99533.31;5039328;28;20477;-63
2023/09/22 03:58:40;;;;;;;3.63;1.83;;;;;;;13.38;100.00;99527.94;5036721;28;20132;-62
2023/09/22 04:01:06;;;;;;;3.05;1.63;;;;;;;13.39;100.00;99527.88;5033493;28;20132;-62
2023/09/22 04:03:31;;;;;;;5.82;1.77;;;;;;;13.42;100.00;99522.56;5033166;28;20067;-62
2023/09/22 04:05:57;;;;;;;1.75;1.10;;;;;;;13.49;100.00;99515.38;5035747;28;20455;-62
2023/09/22 04:08:24;;;;;;;4.90;1.50;;;;;;;13.54;100.00;99522.06;5042125;28;20095;-63
2023/09/22 04:10:49;;;;;;;2.38;1.50;;;;;;;13.58;100.00;99525.41;5025323;28;20065;-62
2023/09/22 04:13:15;;;;;;;3.42;1.30;;;;;;;13.58;100.00;99522.81;5040159;28;20063;-62
2023/09/22 04:15:40;;;;;;;4.88;1.70;;;;;;;13.57;100.00;99524.56;5036331;28;20112;-64
2023/09/22 04:18:06;;;;;;;3.92;1.50;;;;;;;13.60;100.00;99527.91;5035792;28;20009;-62
2023/09/22 04:20:33;;;;;;;3.15;1.50;;;;;;;13.61;100.00;99537.41;5052084;28;20037;-62
2023/09/22 04:22:59;;;;;;;1.90;1.40;;;;;;;13.63;100.00;99533.84;5041270;28;20335;-62
2023/09/22 04:25:34;;;;;;;4.35;1.70;;;;;;;13.64;100.00;99542.47;5033527;28;20047;-62
2023/09/22 04:28:08;;;;;;;;;;;;;;;13.65;100.00;99551.97;5026646;28;20087;-62
2023/09/22 04:30:38;;;;;;;8.07;1.63;;;;;;;13.66;100.00;99546.69;5032077;28;19935;-62
2023/09/22 04:33:04;;;;;;;6.00;1.40;;;;;;;13.70;100.00;99550.88;5029301;28;20052;-64
2023/09/22 04:35:33;;;;;;;5.53;2.58;;;;;;;13.70;100.00;99548.28;5030732;28;20029;-65
2023/09/22 04:37:59;;;;;;;5.10;1.60;;;;;;;13.73;100.00;99537.75;5032839;28;20127;-65
2023/09/22 04:40:34;;;;;;;5.97;1.55;;;;;;;13.75;100.00;99533.34;5035039;28;20669;-64
2023/09/22 04:43:00;;;;;;;3.60;1.38;;;;;;;13.76;100.00;99529.84;5027118;28;20056;-64
2023/09/22 04:45:25;;;;;;;3.03;1.52;;;;;;;13.79;100.00;99534.91;5031269;28;20499;-65
2023/09/22 04:47:54;;;;;;;6.35;1.73;;;;;;;13.78;100.00;99541.00;5025040;28;20114;-65
2023/09/22 04:50:19;;;;;;;4.80;2.17;;;;;;;13.81;100.00;99555.63;5035456;28;20033;-65
2023/09/22 04:52:45;;;;;;;2.45;1.30;;;;;;;13.81;100.00;99555.63;5024604;28;20083;-65
2023/09/22 04:55:11;;;;;;;2.35;1.13;;;;;;;13.81;100.00;99555.63;5035152;28;20033;-64
2023/09/22 04:57:37;;;;;;;5.60;1.73;;;;;;;13.80;100.00;99556.53;5025919;28;20038;-64
2023/09/22 05:00:15;;;;;;;2.05;0.95;;;;;;;13.78;100.00;99558.34;5029201;28;20629;-65
2023/09/22 05:02:41;;;;;;;3.55;1.15;;;;;;;13.71;100.00;99568.13;5028418;28;20057;-65
2023/09/22 05:05:07;;;;;;;3.28;1.45;;;;;;;13.64;100.00;99565.84;5041114;28;20573;-64
2023/09/22 05:07:35;;;;;;;3.78;1.40;;;;;;;13.55;100.00;99565.31;5041904;28;20143;-65
2023/09/22 05:10:01;;;;;;;3.50;1.50;;;;;;;13.47;100.00;99567.34;5039065;28;20033;-64
2023/09/22 05:12:26;;;;;;;2.03;1.02;;;;;;;13.40;100.00;99565.91;5034771;28;20100;-65
2023/09/22 05:14:52;;;;;;;2.47;1.13;;;;;;;13.33;100.00;99571.38;5039534;28;20507;-64
2023/09/22 05:17:18;;;;;;;4.78;1.23;;;;;;;13.28;100.00;99581.94;5032414;28;20048;-65
2023/09/22 05:19:44;;;;;;;2.88;1.02;;;;;;;13.26;100.00;99580.31;5031959;28;20033;-64
2023/09/22 05:22:10;;;;;;;2.78;1.40;;;;;;;13.23;100.00;99576.09;5031161;28;20033;-65
2023/09/22 05:24:36;;;;;;;4.53;1.52;;;;;;;13.25;100.00;99579.47;5040301;28;20108;-63
2023/09/22 05:27:04;;;;;;;4.40;1.30;;;;;;;13.28;100.00;99566.38;5031319;28;20203;-64
2023/09/22 05:29:29;;;;;;;3.83;1.08;;;;;;;13.27;100.00;99580.25;5039597;28;20037;-65
2023/09/22 05:31:54;;;;;;;2.70;1.30;;;;;;;13.27;100.00;99588.03;5039574;28;20125;-65
2023/09/22 05:34:20;;;;;;;4.45;1.45;;;;;;;13.32;100.00;99601.72;5038579;28;20671;-64
2023/09/22 05:36:46;;;;;;;2.72;1.30;;;;;;;13.36;100.00;99597.22;5034444;28;20078;-65
2023/09/22 05:39:12;;;;;;;5.28;1.60;;;;;;;13.41;100.00;99603.09;5029918;28;20044;-65
2023/09/22 05:41:37;;;;;;;6.50;1.33;;;;;;;13.44;100.00;99600.38;5028585;28;20034;-65
2023/09/22 05:44:04;;;;;;;2.90;1.50;;;;;;;13.49;100.00;99608.84;5038185;28;20029;-64
2023/09/22 05:46:31;;;;;;;6.22;1.38;;;;;;;13.51;100.00;99605.28;5030609;28;20045;-64
2023/09/22 05:48:57;;;;;;;5.03;1.27;;;;;;;13.51;100.00;99600.06;5029202;28;20124;-64
2023/09/22 05:51:23;;;;;;;3.80;1.25;;;;;;;13.53;100.00;99602.63;5035209;28;20045;-64
2023/09/22 05:53:51;;;;;;;5.50;1.60;;;;;;;13.53;100.00;99587.88;5028339;28;20112;-65
2023/09/22 05:56:16;;;;;;;3.42;1.10;;;;;;;13.54;100.00;99591.31;5030725;28;20044;-64
2023/09/22 05:58:42;;;;;;;4.75;1.23;;;;;;;13.52;100.00;99601.78;5040124;28;20041;-65
2023/09/22 06:01:09;;;;;;;3.53;1.27;;;;;;;13.54;100.00;99599.97;5041735;28;20170;-64
2023/09/22 06:03:37;;;;;;;5.47;1.40;;;;;;;13.54;100.00;99593.91;5041137;28;20024;-64
2023/09/22 06:06:11;;;;;;;3.33;1.73;;;;;;;13.55;100.00;99604.25;5039612;28;20038;-65
2023/09/22 06:08:37;;;;;;;5.05;1.30;;;;;;;13.56;100.00;99599.91;5039499;28;20128;-64
2023/09/22 06:11:06;;;;;;;2.95;1.25;;;;;;;13.62;100.00;99599.69;5030254;28;20737;-65
2023/09/22 06:13:33;;;;;;;2.92;1.30;;;;;;;13.67;100.00;99594.28;5033769;28;20037;-65
2023/09/22 06:15:58;;;;;;;4.97;1.45;;;;;;;13.71;100.00;99585.47;5035654;28;20029;-64
2023/09/22 06:18:24;;;;;;;4.35;1.52;;;;;;;13.77;100.00;99591.25;5040655;28;20479;-64
2023/09/22 06:20:53;;;;;;;5.63;1.50;;;;;;;13.80;100.00;99592.91;5042038;28;20407;-64
2023/09/22 06:23:19;;;;;;;5.03;1.38;;;;;;;13.80;100.00;99598.91;5038056;28;20079;-65
2023/09/22 06:25:44;;;;;;;5.10;1.73;;;;;;;13.80;100.00;99600.69;5040144;28;20040;-65
2023/09/22 06:28:10;;;;;;;9.60;1.60;;;;;;;13.84;100.00;99607.44;5029445;28;20492;-65
2023/09/22 06:30:35;;;;;;;2.85;1.25;;;;;;;13.84;100.00;99605.69;5038266;28;20029;-65
2023/09/22 06:33:04;;;;;;;2.85;1.30;;;;;;;13.89;100.00;99621.13;5035016;28;20026;-65
2023/09/22 06:35:30;;;;;;;3.03;1.55;;;;;;;13.96;100.00;99628.59;5032246;28;20028;-66
2023/09/22 06:37:56;;;;;;;12.02;1.63;;;;;;;13.96;100.00;99631.19;5034431;28;20455;-65
2023/09/22 06:40:21;;;;;;;5.97;1.30;;;;;;;14.03;100.00;99637.84;5037589;28;20116;-65
2023/09/22 06:42:46;;;;;;;2.75;1.48;;;;;;;14.04;100.00;99625.66;5034772;28;20087;-65
2023/09/22 06:45:12;;;;;;;3.22;1.17;;;;;;;14.07;100.00;99633.34;5037356;28;20017;-65
2023/09/22 06:47:38;;;;;;;4.15;1.20;;;;;;;14.11;100.00;99633.16;5031243;28;20045;-64
2023/09/22 06:50:09;;;;;;;3.30;1.05;;;;;;;14.13;100.00;99631.34;5030345;28;20034;-62
2023/09/22 06:52:35;;;;;;;3.28;1.30;;;;;;;14.19;100.00;99632.03;5036395;28;20026;-62
2023/09/22 06:55:01;;;;;;;2.35;1.52;;;;;;;14.26;100.00;99651.63;5043260;28;20469;-61
2023/09/22 06:57:26;;;;;;;4.70;1.60;;;;;;;14.33;100.00;99653.94;5038767;28;20104;-62
2023/09/22 06:59:55;;;;;;;2.78;1.27;;;;;;;14.40;100.00;99665.78;5040583;28;20033;-64
2023/09/22 07:02:22;;;;;;;7.88;2.15;;;;;;;14.41;100.00;99670.09;5034033;28;20634;-65
2023/09/22 07:04:47;;;;;;;6.30;1.80;;;;;;;14.42;100.00;99669.19;5033929;28;20809;-64
2023/09/22 07:07:13;;;;;;;2.60;0.95;;;;;;;14.44;100.00;99672.56;5030776;28;20060;-64
2023/09/22 07:09:42;;;;;;;2.97;1.20;;;;;;;14.50;100.00;99672.31;5026321;28;20112;-63
2023/09/22 07:12:08;;;;;;;6.60;1.63;;;;;;;14.55;100.00;99672.09;5026823;28;20071;-63
2023/09/22 07:14:33;;;;;;;6.68;1.40;;;;;;;14.61;100.00;99664.88;5029717;28;20056;-64
2023/09/22 07:16:59;;;;;;;3.53;1.23;;;;;;;14.66;100.00;99670.75;5035790;28;20033;-64
2023/09/22 07:19:24;;;;;;;4.28;1.50;;;;;;;14.71;100.00;99669.72;5035290;28;20029;-61
2023/09/22 07:21:51;;;;;;;2.47;1.17;;;;;;;14.79;100.00;99670.22;5034586;28;20083;-61
2023/09/22 07:24:17;;;;;;;3.17;1.00;;;;;;;14.85;100.00;99678.63;5037244;28;20546;-61
2023/09/22 07:26:42;;;;;;;3.30;1.13;;;;;;;14.90;100.00;99688.84;5037374;28;20068;-62
2023/09/22 07:29:07;;;;;;;5.63;1.50;;;;;;;14.92;100.00;99667.03;5030735;28;20544;-64
2023/09/22 07:31:33;;;;;;;3.78;1.30;;;;;;;14.94;100.00;99672.16;5027672;28;20040;-61
2023/09/22 07:33:58;;;;;;;5.78;1.40;;;;;;;14.98;100.00;99671.97;5039613;28;20104;-61
2023/09/22 07:36:26;;;;;;;3.38;1.15;;;;;;;15.03;100.00;99669.16;5035203;28;20099;-61
2023/09/22 07:38:52;;;;;;;3.95;0.90;;;;;;;15.07;99.77;99668.13;5035793;28;20037;-61
2023/09/22 07:41:18;;;;;;;4.88;1.42;;;;;;;15.09;98.96;99669.75;5037197;28;20028;-62
2023/09/22 07:43:44;;;;;;;2.28;0.93;;;;;;;15.13;97.98;99671.31;5039419;28;20045;-62
2023/09/22 07:46:09;;;;;;;2.40;1.20;;;;;;;15.15;98.88;99692.91;5029962;28;20045;-62
2023/09/22 07:48:35;;;;;;;3.10;0.98;;;;;;;15.13;98.93;99693.88;5036998;28;20064;-61
2023/09/22 07:51:01;;;;;;;1.95;1.20;;;;;;;15.14;98.32;99691.19;5040376;28;20037;-62
2023/09/22 07:53:27;;;;;;;2.40;1.02;;;;;;;15.14;97.68;99691.19;5038582;28;20048;-62
2023/09/22 07:55:59;;;;;;;2.28;1.02;;;;;;;15.22;97.62;99696.09;5040602;28;20084;-61
2023/09/22 07:58:28;;;;;;;3.28;0.90;;;;;;;15.22;96.00;99696.09;5037755;28;20917;-62
2023/09/22 08:00:54;;;;;;;1.92;1.00;;;;;;;15.23;96.90;99693.41;5038305;28;20026;-62
2023/09/22 08:03:20;;;;;;;2.20;0.85;;;;;;;15.27;96.13;99688.06;5032416;28;20029;-61
2023/09/22 08:05:46;;;;;;;3.08;1.10;;;;;;;15.33;95.09;99683.44;5035057;28;20127;-62
2023/09/22 08:08:13;;;;;;;3.15;0.88;;;;;;;15.45;95.24;99685.47;5043953;28;20045;-62
2023/09/22 08:10:39;;;;;;;4.10;1.00;;;;;;;15.53;94.77;99685.13;5033758;28;20549;-62
2023/09/22 08:13:08;;;;;;;3.13;0.95;;;;;;;15.55;94.47;99688.50;5039920;28;20254;-62
2023/09/22 08:15:37;;;;;;;3.20;0.98;;;;;;;15.63;94.04;99689.88;5032797;28;20026;-62
2023/09/22 08:18:06;;;;;;;3.83;1.02;;;;;;;15.64;92.57;99681.13;5032976;28;20084;-62
2023/09/22 08:20:35;;;;;;;5.10;0.90;;;;;;;15.65;92.22;99690.66;5038090;28;20033;-61
2023/09/22 08:23:00;;;;;;;3.03;0.77;;;;;;;15.65;92.71;99685.44;5038758;28;20098;-62
2023/09/22 08:25:26;;;;;;;3.35;0.88;;;;;;;15.65;93.27;99690.66;5035469;28;20033;-62
2023/09/22 08:27:52;;;;;;;2.28;0.93;;;;;;;15.73;91.62;99685.91;5038072;28;20124;-62
2023/09/22 08:30:19;;;;;;;4.47;1.00;;;;;;;15.78;89.95;99672.69;5036928;28;20049;-62
2023/09/22 08:32:45;;;;;;;1.58;0.90;;;;;;;15.84;89.36;99679.38;5035738;28;20041;-62
2023/09/22 08:35:12;;;;;;;1.75;0.50;;;;;;;15.89;87.40;99665.22;5039093;28;20078;-61
2023/09/22 08:37:41;;;;;;;2.60;0.88;;;;;;;15.92;87.92;99674.63;5035873;28;20033;-62
2023/09/22 08:40:14;;;;;;;1.02;0.50;;;;;;;15.99;87.75;99674.28;5034105;28;20042;-61
2023/09/22 08:42:40;;;;;;;1.50;1.00;;;;;;;16.03;86.62;99659.31;5027920;28;20051;-61
2023/09/22 08:45:06;;;;;;;2.05;1.00;;;;;;;16.09;86.77;99664.25;5038663;28;20021;-61
2023/09/22 08:47:38;;;;;;;1.45;0.75;;;;;;;16.10;85.15;99653.75;5039560;28;20099;-62
2023/09/22 08:50:06;;;;;;;2.90;1.08;;;;;;;16.20;83.83;99651.56;5031162;28;20037;-62
2023/09/22 08:52:31;;;;;;;4.35;1.00;;;;;;;16.28;83.26;99654.63;5041204;28;20128;-62
2023/09/22 08:54:57;;;;;;;2.15;0.82;;;;;;;16.38;82.25;99650.66;5045746;28;20123;-62
2023/09/22 08:57:23;;;;;;;2.17;1.00;;;;;;;16.44;82.41;99639.91;5041761;28;20037;-62
2023/09/22 08:59:53;;;;;;;2.05;0.60;;;;;;;16.38;83.21;99655.88;5034216;28;20037;-62
2023/09/22 09:02:19;;;;;;;2.85;0.80;;;;;;;16.42;82.74;99649.56;5035863;28;20121;-62
2023/09/22 09:04:45;;;;;;;2.90;0.90;;;;;;;16.46;82.54;99650.25;5041319;28;20706;-62
2023/09/22 09:07:15;;;;;;;1.58;0.77;;;;;;;16.51;80.67;99627.38;5033948;28;20045;-62
2023/09/22 09:09:45;;;;;;;1.20;0.55;;;;;;;16.64;81.02;99646.72;5034482;28;20076;-62
2023/09/22 09:12:12;;;;;;;2.80;1.08;;;;;;;16.77;79.33;99626.97;5038980;28;20064;-61
2023/09/22 09:14:42;;;;;;;3.33;0.90;;;;;;;16.98;78.82;99623.19;5042002;28;20400;-61
2023/09/22 09:17:23;;;;;;;4.53;0.73;;;;;;;17.20;75.70;99581.97;5035448;28;20037;-61
2023/09/22 09:20:01;;;;;;;2.55;0.70;;;;;;;17.49;77.68;99642.22;5039209;28;20047;-61
2023/09/22 09:22:38;;;;;;;2.63;0.75;;;;;;;17.88;75.82;99619.16;5030667;28;20086;-61
2023/09/22 09:25:10;;;;;;;2.03;0.80;;;;;;;18.04;73.39;99587.78;5034974;28;20035;-61
2023/09/22 09:27:36;;;;;;;2.85;0.80;;;;;;;18.28;72.97;99584.59;5030226;28;20053;-63
2023/09/22 09:30:08;;;;;;;3.15;0.70;;;;;;;18.42;70.54;99563.69;5034040;28;20029;-61
2023/09/22 09:32:36;;;;;;;1.48;0.70;;;;;;;18.55;71.37;99583.88;5039404;28;20040;-61
2023/09/22 09:35:02;;;;;;;2.38;1.00;;;;;;;18.53;72.37;99613.59;5029730;28;20128;-61
2023/09/22 09:37:28;;;;;;;1.08;0.80;;;;;;;18.66;72.10;99605.88;5033900;28;20447;-61
2023/09/22 09:39:54;;;;;;;2.08;0.70;;;;;;;18.53;70.20;99563.88;5030225;28;20033;-61
2023/09/22 09:42:23;;;;;;;1.15;0.73;;;;;;;18.59;70.30;99585.38;5036624;28;20025;-66
2023/09/22 09:44:52;;;;;;;4.35;1.02;;;;;;;18.52;70.17;99588.34;5036259;28;20799;-66
2023/09/22 09:47:25;;;;;;;1.77;0.50;;;;;;;18.69;66.61;99532.38;5031677;28;20041;-65
2023/09/22 09:49:53;;;;;;;2.47;0.75;;;;;;;18.86;66.43;99529.59;5038628;28;20041;-65
2023/09/22 09:52:37;;;;;;;1.58;0.70;;;;;;;18.99;64.90;99521.84;5040181;28;20033;-66
2023/09/22 09:55:07;;;;;;;2.47;1.02;;;;;;;18.95;62.83;99495.00;5043140;28;20033;-66
2023/09/22 09:57:36;;;;;;;1.70;0.80;;;;;;;18.89;63.22;99529.41;5038002;28;20033;-66
2023/09/22 10:00:04;;;;;;;1.13;0.68;;;;;;;18.71;63.28;99522.66;5044370;28;20107;-66
2023/09/22 10:02:29;;;;;;;2.15;0.90;;;;;;;18.56;63.57;99539.28;5038947;28;20071;-66
2023/09/22 10:04:57;;;;;;;1.70;0.63;;;;;;;18.54;64.88;99562.09;5037958;28;20116;-66
2023/09/22 10:07:22;;;;;;;2.05;0.65;;;;;;;18.41;62.61;99524.50;5043377;28;20570;-66
2023/09/22 10:09:48;;;;;;;1.55;0.60;;;;;;;18.56;64.07;99554.13;5029879;28;20124;-62
2023/09/22 10:12:15;;;;;;;3.08;0.73;;;;;;;18.65;64.74;99574.53;5027509;28;20037;-62
2023/09/22 10:14:47;;;;;;;4.20;0.90;;;;;;;18.81;63.86;99554.34;5034565;28;20121;-63
2023/09/22 10:17:22;;;;;;;5.80;0.80;;;;;;;18.84;63.76;99560.28;5036383;28;20593;-62
2023/09/22 10:19:48;;;;;;;2.67;1.23;;;;;;;18.70;63.19;99544.53;5039861;28;20047;-63
2023/09/22 10:22:14;;;;;;;2.65;0.75;;;;;;;18.57;64.45;99584.63;5034596;28;20116;-62
2023/09/22 10:24:40;;;;;;;2.83;0.70;;;;;;;18.74;63.83;99568.75;5031680;28;20100;-63
2023/09/22 10:27:11;;;;;;;1.83;0.98;;;;;;;18.86;64.58;99578.50;5041307;28;20035;-62
2023/09/22 10:29:52;;;;;;;6.63;0.88;;;;;;;18.76;63.64;99561.66;5037378;28;20527;-63
2023/09/22 10:32:17;;;;;;;3.55;0.57;;;;;;;18.77;64.01;99574.63;5025276;28;20041;-63
2023/09/22 10:34:53;;;;;;;1.35;0.60;;;;;;;18.84;63.88;99575.13;5034804;28;20033;-62
2023/09/22 10:37:20;;;;;;;1.48;0.70;;;;;;;18.83;61.92;99536.75;5025684;28;20036;-62
2023/09/22 10:39:52;;;;;;;3.15;0.73;;;;;;;18.95;61.11;99523.78;5034957;28;20500;-62
2023/09/22 10:42:18;;;;;;;3.80;0.90;;;;;;;19.09;61.92;99543.06;5031290;28;20029;-62
2023/09/22 10:45:01;;;;;;;2.92;0.93;;;;;;;18.97;61.40;99537.63;5036163;28;20030;-66
2023/09/22 10:47:40;;;;;;;2.15;0.68;;;;;;;18.81;61.65;99549.13;5049038;28;20128;-66
2023/09/22 10:50:15;;;;;;;1.58;0.80;;;;;;;18.57;60.45;99533.13;5030024;28;20040;-62
2023/09/22 10:52:48;;;;;;;1.90;0.70;;;;;;;18.73;60.09;99520.78;5029688;28;20034;-62
2023/09/22 10:55:23;;;;;;;1.98;1.10;;;;;;;18.81;58.13;99496.75;5038274;28;20045;-62
2023/09/22 10:57:49;;;;;;;1.98;0.68;;;;;;;18.95;58.09;99491.53;5026796;28;20025;-63
2023/09/22 11:00:18;;;;;;;1.50;0.82;;;;;;;19.02;59.19;99512.00;5045782;28;20028;-63
2023/09/22 11:02:44;;;;;;;2.60;0.77;;;;;;;18.97;57.86;99485.25;5022360;28;20578;-66
2023/09/22 11:05:12;;;;;;;2.97;0.85;;;;;;;19.05;57.56;99492.63;5026105;28;20037;-66
2023/09/22 11:07:37;;;;;;;1.60;0.60;;;;;;;18.99;57.08;99483.41;5022173;28;20041;-62
2023/09/22 11:10:02;;;;;;;2.28;0.73;;;;;;;19.01;56.79;99488.53;5034118;28;20037;-64
2023/09/22 11:12:28;;;;;;;2.05;0.60;;;;;;;19.25;56.75;99489.59;5038984;28;20032;-63
2023/09/22 11:14:57;;;;;;;4.30;0.70;;;;;;;19.48;55.78;99472.38;5041516;28;20041;-63
2023/09/22 11:17:41;;;;;;;1.65;0.68;;;;;;;19.67;56.06;99485.13;5031864;28;20079;-63
2023/09/22 11:20:15;;;;;;;1.33;0.68;;;;;;;19.95;55.72;99477.13;5038449;28;20651;-62
2023/09/22 11:22:42;;;;;;;4.10;0.68;;;;;;;20.12;53.47;99440.97;5037711;28;20041;-66
2023/09/22 11:25:11;;;;;;;2.63;0.80;;;;;;;20.26;54.30;99466.25;5039927;28;20301;-66
2023/09/22 11:27:44;;;;;;;3.22;0.93;;;;;;;20.48;53.12;99449.88;5044968;28;20135;-65
2023/09/22 11:30:14;;;;;;;3.03;1.15;;;;;;;20.57;54.08;99478.91;5030128;28;20124;-62